ENOP weather

Fagerhaug Airport
Sør-Trøndelag, Norway

Public forecast

Using degrees Celsius for public forecast. Weather courtesy of forecast.io.

METAR (pilot weather report)

Closest report is Røros Airport, 41.5 nm (76.9 km) E. Retrieved 2019/05/22 06:20 UTC (8 minutes ago):

ENRO 220620Z VRB01KT 9999 -SHRA FEW011 SCT020 BKN056 12/12 Q1012

TAF (pilot weather forecast)

Closest forecast is Trondheim Airport Værnes, 56.7 nm (105.0 km) NNE. Retrieved 2019/05/22 06:57 UTC (0 seconds ago):

TAF ENVA 220500Z 2206/2306 12008KT CAVOK PROB30 TEMPO 2210/2215 8000 SHRA BKN030CB BECMG 2302/2305 26012KT